Sunday, December 17, 2017, 2:39 PM EST
Back to Local

KPTW, Pottstown Limerick Airport

Location: Royersford, PA, United States Lat: 40.233
Local Time: 2:39 PM EST (19:39 GMT) Lon: -75.55
Time Zone: US/Eastern Elev: 291 ft

Show me the last for .
Show Decoded

2017-12-17 13:54 METAR KPTW 171854Z AUTO 00000KT 6SM HZ CLR 03/M03 A3022 RMK AO2 SLP234 T00331033
                 =
2017-12-17 12:54 METAR KPTW 171754Z AUTO 00000KT 6SM HZ CLR 03/M04 A3024 RMK AO2 SLP241 T00281039
                 10028 21039 58015 =
2017-12-17 11:54 METAR KPTW 171654Z AUTO 11003KT 7SM CLR 02/M04 A3027 RMK AO2 SLP249 T00221039 =
2017-12-17 10:54 METAR KPTW 171554Z AUTO 05003KT 7SM CLR 01/M04 A3029 RMK AO2 SLP259 T00111044 =
2017-12-17 09:54 METAR KPTW 171454Z AUTO 07004KT 7SM CLR 00/M04 A3029 RMK AO2 SLP256 T00001044
                 50006 =
2017-12-17 08:54 METAR KPTW 171354Z AUTO 05003KT 5SM BR CLR M01/M03 A3029 RMK AO2 SLP257
                 T10111033 =
2017-12-17 07:54 METAR KPTW 171254Z AUTO 05003KT 4SM BR CLR M04/M05 A3028 RMK AO2 SLP253
                 T10391050 =
2017-12-17 06:54 METAR KPTW 171154Z AUTO 00000KT 6SM BR CLR M03/M04 A3027 RMK AO2 SLP250
                 T10331044 10011 21039 53009 =
2017-12-17 05:54 METAR KPTW 171054Z AUTO 00000KT 6SM BR CLR M04/M05 A3025 RMK AO2 SLP245
                 T10391050 =
2017-12-17 04:54 METAR KPTW 170954Z AUTO 00000KT 6SM BR CLR M02/M04 A3024 RMK AO2 SLP239
                 T10221044 =
2017-12-17 03:54 METAR KPTW 170854Z AUTO 04003KT 7SM OVC055 M01/M03 A3024 RMK AO2 SLP240
                 T10061033 50013 =
2017-12-17 02:54 METAR KPTW 170754Z AUTO 06003KT 7SM OVC060 01/M03 A3024 RMK AO2 SLP241 T00061033
                 =
2017-12-17 01:54 METAR KPTW 170654Z AUTO 07003KT 7SM OVC060 01/M03 A3023 RMK AO2 SLP236 T00061033
                 =
2017-12-17 00:54 METAR KPTW 170554Z AUTO 00000KT 7SM OVC055 01/M03 A3020 RMK AO2 SLP227 T00061028
                 10033 20006 50008 =
2017-12-16 23:54 METAR KPTW 170454Z AUTO 00000KT 8SM OVC050 01/M03 A3020 RMK AO2 SLP227 T00111028
                 400391122 =
2017-12-16 22:54 METAR KPTW 170354Z AUTO 00000KT 8SM OVC055 02/M03 A3018 RMK AO2 SLP221 T00221033
                 =
2017-12-16 21:54 METAR KPTW 170254Z AUTO 00000KT 9SM OVC050 03/M04 A3018 RMK AO2 SLP219 T00331039
                 51019 =
2017-12-16 20:54 METAR KPTW 170154Z AUTO 00000KT 9SM OVC047 02/M04 A3016 RMK AO2 SLP214 T00171039
                 =
2017-12-16 19:54 METAR KPTW 170054Z AUTO 00000KT 9SM OVC050 02/M04 A3015 RMK AO2 SLP210 T00221039
                 =
2017-12-16 18:54 METAR KPTW 162354Z AUTO 20003KT 9SM OVC050 03/M04 A3012 RMK AO2 SLP200 T00281044
                 10039 20017 51028 =
2017-12-16 17:54 METAR KPTW 162254Z AUTO 00000KT 9SM OVC055 03/M04 A3009 RMK AO2 SLP192 T00281044
                 =
2017-12-16 16:54 METAR KPTW 162154Z AUTO 00000KT 9SM OVC060 03/M05 A3006 RMK AO2 SLP179 T00331050
                 =
2017-12-16 15:54 METAR KPTW 162054Z AUTO 22006KT 8SM BKN055 04/M05 A3004 RMK AO2 SLP172 T00391050
                 53000 =
2017-12-16 14:54 METAR KPTW 161954Z AUTO 23006KT 8SM BKN055 03/M05 A3003 RMK AO2 SLP169 T00331050
                 =

Support USWX by starting your Amazon purchase here.